createdAt,value
2022-10-23T00:00:24.031Z,14.67
2022-10-23T00:05:26.838Z,14.67
2022-10-23T00:10:28.209Z,14.66
2022-10-23T00:15:29.521Z,14.67
2022-10-23T00:20:30.919Z,14.61
2022-10-23T00:25:33.419Z,14.57
2022-10-23T00:30:34.684Z,14.54
2022-10-23T00:35:40.349Z,14.45
2022-10-23T00:40:43.881Z,14.42
2022-10-23T00:45:45.416Z,14.46
2022-10-23T00:50:48.541Z,14.46
2022-10-23T00:55:53.800Z,14.43
2022-10-23T01:00:57.114Z,14.44
2022-10-23T01:06:01.375Z,14.37
2022-10-23T01:11:12.147Z,14.30
2022-10-23T01:16:31.621Z,14.26
2022-10-23T01:21:54.399Z,14.20
2022-10-23T01:27:22.445Z,14.26
2022-10-23T01:32:29.348Z,14.19
2022-10-23T01:37:41.451Z,14.15
2022-10-23T01:42:48.104Z,14.14
2022-10-23T01:47:51.822Z,14.17
2022-10-23T01:52:53.267Z,14.08
2022-10-23T01:57:55.013Z,14.05
2022-10-23T02:02:58.786Z,14.06
2022-10-23T02:08:00.729Z,14.03
2022-10-23T02:13:19.007Z,13.98
2022-10-23T02:18:40.380Z,13.97
2022-10-23T02:23:52.547Z,13.97
2022-10-23T02:29:08.786Z,14.00
2022-10-23T02:34:10.156Z,13.97
2022-10-23T02:39:11.637Z,13.95
2022-10-23T02:44:25.130Z,13.94
2022-10-23T02:49:51.825Z,13.93
2022-10-23T02:55:05.888Z,13.92
2022-10-23T03:00:14.475Z,13.95
2022-10-23T03:05:21.825Z,14.07
2022-10-23T03:10:23.696Z,14.09
2022-10-23T03:15:25.078Z,14.10
2022-10-23T03:20:26.516Z,14.00
2022-10-23T03:25:28.397Z,13.98
2022-10-23T03:30:29.648Z,14.02
2022-10-23T03:35:31.084Z,14.08
2022-10-23T03:40:32.599Z,14.13
2022-10-23T03:45:34.208Z,14.13
2022-10-23T03:50:35.736Z,14.04
2022-10-23T03:55:36.998Z,13.93
2022-10-23T04:00:38.328Z,13.79
2022-10-23T04:05:41.264Z,13.78
2022-10-23T04:10:42.759Z,13.97
2022-10-23T04:15:53.515Z,14.11
2022-10-23T04:20:54.750Z,14.05
2022-10-23T04:25:57.502Z,13.99
2022-10-23T04:30:58.773Z,13.91
2022-10-23T04:36:00.118Z,13.92
2022-10-23T04:41:01.420Z,13.75
2022-10-23T04:46:02.792Z,13.70
2022-10-23T04:51:05.948Z,13.68
2022-10-23T04:56:07.435Z,13.67
2022-10-23T05:01:10.552Z,13.66
2022-10-23T05:06:12.094Z,13.65
2022-10-23T05:11:13.358Z,13.64
2022-10-23T05:16:37.755Z,13.60
2022-10-23T05:21:40.401Z,13.60
2022-10-23T05:26:41.700Z,13.60
2022-10-23T05:31:43.558Z,13.61
2022-10-23T05:36:45.701Z,13.60
2022-10-23T05:41:47.058Z,13.56
2022-10-23T05:46:48.517Z,13.58
2022-10-23T05:51:49.770Z,13.54
2022-10-23T05:56:51.866Z,13.50
2022-10-23T06:01:53.224Z,13.43
2022-10-23T06:06:54.608Z,13.46
2022-10-23T06:11:56.269Z,13.45
2022-10-23T06:16:57.579Z,13.46
2022-10-23T06:21:58.840Z,13.41
2022-10-23T06:27:00.084Z,13.42
2022-10-23T06:32:01.452Z,13.43
2022-10-23T06:37:02.791Z,13.46
2022-10-23T06:42:04.178Z,13.54
2022-10-23T06:47:06.556Z,13.60
2022-10-23T06:52:14.379Z,13.66
2022-10-23T06:57:29.078Z,13.72
2022-10-23T07:02:30.383Z,13.76
2022-10-23T07:07:32.078Z,13.87
2022-10-23T07:12:33.382Z,13.92
2022-10-23T07:17:34.600Z,13.98
2022-10-23T07:22:35.841Z,14.11
2022-10-23T07:27:38.313Z,14.28
2022-10-23T07:32:39.840Z,14.43
2022-10-23T07:37:41.554Z,14.51
2022-10-23T07:42:43.118Z,14.61
2022-10-23T07:47:50.630Z,14.69
2022-10-23T07:52:51.978Z,14.83
2022-10-23T07:57:53.221Z,15.01
2022-10-23T08:02:54.482Z,15.11
2022-10-23T08:07:55.723Z,15.23
2022-10-23T08:12:56.953Z,15.34
2022-10-23T08:17:58.227Z,15.48
2022-10-23T08:22:59.666Z,15.64
2022-10-23T08:28:04.217Z,15.79
2022-10-23T08:33:07.666Z,15.86
2022-10-23T08:38:10.469Z,15.89
2022-10-23T08:43:11.746Z,16.01
2022-10-23T08:48:25.972Z,16.07
2022-10-23T08:53:40.706Z,16.22
2022-10-23T08:58:48.263Z,16.47
2022-10-23T09:03:50.362Z,16.73
2022-10-23T09:09:10.528Z,16.84
2022-10-23T09:14:44.672Z,16.68
2022-10-23T09:19:50.245Z,16.43
2022-10-23T09:24:53.791Z,16.30
2022-10-23T09:29:56.104Z,16.20
2022-10-23T09:34:57.372Z,16.22
2022-10-23T09:40:12.356Z,16.25
2022-10-23T09:45:34.727Z,16.33
2022-10-23T09:50:35.973Z,16.40
2022-10-23T09:55:37.274Z,16.67
2022-10-23T10:00:47.018Z,17.40
2022-10-23T10:06:02.989Z,17.28
2022-10-23T10:11:36.074Z,17.31
2022-10-23T10:16:57.224Z,18.32
2022-10-23T10:22:31.113Z,19.48
2022-10-23T10:27:54.971Z,18.69
2022-10-23T10:33:17.765Z,18.10
2022-10-23T10:38:28.193Z,17.73
2022-10-23T10:43:37.466Z,17.57
2022-10-23T10:48:49.385Z,17.47
2022-10-23T10:54:26.646Z,17.45
2022-10-23T10:59:37.629Z,17.37
2022-10-23T11:04:51.030Z,17.22
2022-10-23T11:09:52.371Z,17.16
2022-10-23T11:14:53.998Z,17.27
2022-10-23T11:20:32.523Z,17.75
2022-10-23T11:25:58.758Z,18.58
2022-10-23T11:31:26.669Z,19.04
2022-10-23T11:36:49.159Z,18.94
2022-10-23T11:42:10.385Z,19.82
2022-10-23T11:47:40.760Z,19.47
2022-10-23T11:53:14.956Z,19.15
2022-10-23T11:58:21.584Z,19.02
2022-10-23T12:03:29.308Z,19.50
2022-10-23T12:08:34.728Z,21.77
2022-10-23T12:13:38.721Z,25.78
2022-10-23T12:18:47.680Z,30.91
2022-10-23T12:23:48.862Z,32.57
2022-10-23T12:28:59.013Z,33.95
2022-10-23T12:34:09.594Z,34.97
2022-10-23T12:39:30.921Z,35.95
2022-10-23T12:44:32.478Z,36.55
2022-10-23T12:49:35.347Z,36.02
2022-10-23T12:54:39.422Z,37.20
2022-10-23T12:59:42.626Z,34.38
2022-10-23T13:04:43.928Z,32.40
2022-10-23T13:09:45.802Z,31.31
2022-10-23T13:15:17.860Z,28.06
2022-10-23T13:20:23.694Z,26.13
2022-10-23T13:25:32.766Z,26.15
2022-10-23T13:30:46.218Z,26.51
2022-10-23T13:35:58.270Z,25.39
2022-10-23T13:41:00.929Z,24.88
2022-10-23T13:46:02.493Z,24.54
2022-10-23T13:51:17.550Z,24.79
2022-10-23T13:56:20.592Z,23.96
2022-10-23T14:01:28.858Z,23.69
2022-10-23T14:06:31.602Z,22.73
2022-10-23T14:11:33.762Z,22.38
2022-10-23T14:16:35.088Z,22.98
2022-10-23T14:21:36.550Z,22.97
2022-10-23T14:26:38.023Z,22.29
2022-10-23T14:31:39.304Z,21.94
2022-10-23T14:36:49.608Z,21.60
2022-10-23T14:41:52.285Z,21.23
2022-10-23T14:46:53.555Z,20.85
2022-10-23T14:51:54.846Z,20.64
2022-10-23T14:56:56.139Z,20.37
2022-10-23T15:01:57.370Z,20.23
2022-10-23T15:06:58.645Z,20.11
2022-10-23T15:11:59.934Z,19.99
2022-10-23T15:17:01.393Z,19.91
2022-10-23T15:22:02.674Z,19.85
2022-10-23T15:27:04.054Z,19.77
2022-10-23T15:32:05.956Z,19.67
2022-10-23T15:37:07.286Z,19.60
2022-10-23T15:42:10.533Z,19.49
2022-10-23T15:47:11.774Z,19.37
2022-10-23T15:52:13.136Z,19.25
2022-10-23T15:57:14.418Z,19.18
2022-10-23T16:02:15.820Z,19.13
2022-10-23T16:07:17.231Z,19.05
2022-10-23T16:12:18.490Z,19.01
2022-10-23T16:17:19.853Z,18.94
2022-10-23T16:22:21.178Z,18.92
2022-10-23T16:27:22.425Z,18.86
2022-10-23T16:32:23.705Z,18.81
2022-10-23T16:37:24.966Z,18.82
2022-10-23T16:42:26.594Z,18.85
2022-10-23T16:47:30.982Z,18.83
2022-10-23T16:52:33.213Z,18.83
2022-10-23T16:57:36.064Z,18.78
2022-10-23T17:02:37.915Z,18.79
2022-10-23T17:07:39.273Z,18.72
2022-10-23T17:12:40.511Z,18.78
2022-10-23T17:17:43.065Z,18.77
2022-10-23T17:22:44.599Z,18.67
2022-10-23T17:27:46.482Z,18.67
2022-10-23T17:32:48.004Z,18.66
2022-10-23T17:37:50.397Z,18.63
2022-10-23T17:42:51.658Z,18.57
2022-10-23T17:47:53.210Z,18.40
2022-10-23T17:52:54.474Z,18.24
2022-10-23T17:57:55.710Z,17.70
2022-10-23T18:02:56.953Z,17.57
2022-10-23T18:07:58.525Z,17.72
2022-10-23T18:12:59.923Z,17.83
2022-10-23T18:18:07.576Z,17.76
2022-10-23T18:23:09.007Z,17.70
2022-10-23T18:28:10.255Z,17.54
2022-10-23T18:33:11.487Z,17.47
2022-10-23T18:38:13.835Z,17.41
2022-10-23T18:43:20.014Z,17.35
2022-10-23T18:48:32.813Z,17.31
2022-10-23T18:53:34.086Z,17.39
2022-10-23T18:58:35.335Z,17.49
2022-10-23T19:03:36.577Z,17.44
2022-10-23T19:08:40.377Z,17.41
2022-10-23T19:13:42.855Z,17.39
2022-10-23T19:18:51.781Z,17.20
2022-10-23T19:23:53.091Z,17.16
2022-10-23T19:28:54.476Z,17.12
2022-10-23T19:33:55.742Z,17.01
2022-10-23T19:38:56.998Z,16.93
2022-10-23T19:43:58.297Z,16.91
2022-10-23T19:48:59.566Z,16.90
2022-10-23T19:54:00.850Z,16.92
2022-10-23T19:59:02.138Z,16.94
2022-10-23T20:04:03.646Z,16.98
2022-10-23T20:09:09.632Z,16.99
2022-10-23T20:14:12.329Z,17.03
2022-10-23T20:24:19.284Z,17.11
2022-10-23T20:29:21.138Z,17.08
2022-10-23T20:34:22.524Z,17.11
2022-10-23T20:39:25.500Z,17.13
2022-10-23T20:44:26.767Z,17.06
2022-10-23T20:49:28.257Z,17.01
2022-10-23T20:54:29.668Z,17.00
2022-10-23T20:59:30.982Z,16.96
2022-10-23T21:04:32.288Z,16.92
2022-10-23T21:09:33.586Z,16.91
2022-10-23T21:14:35.510Z,16.90
2022-10-23T21:19:36.813Z,16.87
2022-10-23T21:24:38.074Z,16.91
2022-10-23T21:29:39.311Z,16.92
2022-10-23T21:34:40.611Z,16.90
2022-10-23T21:39:43.507Z,16.92
2022-10-23T21:44:44.877Z,16.80
2022-10-23T21:49:46.221Z,16.79
2022-10-23T21:54:51.997Z,16.74
2022-10-23T21:59:54.313Z,16.72
2022-10-23T22:04:55.537Z,16.70
2022-10-23T22:09:56.809Z,16.65
2022-10-23T22:14:58.089Z,16.54
2022-10-23T22:19:59.334Z,16.56
2022-10-23T22:25:01.333Z,16.52
2022-10-23T22:30:03.682Z,16.44
2022-10-23T22:35:05.503Z,16.48
2022-10-23T22:40:08.393Z,16.38
2022-10-23T22:45:09.862Z,16.40
2022-10-23T22:50:11.150Z,16.30
2022-10-23T22:55:12.397Z,16.30
2022-10-23T23:00:14.118Z,16.33
2022-10-23T23:05:15.367Z,16.26
2022-10-23T23:10:16.666Z,16.28
2022-10-23T23:15:18.431Z,16.24
2022-10-23T23:20:19.787Z,16.17
2022-10-23T23:25:21.019Z,16.10
2022-10-23T23:30:22.568Z,16.09
2022-10-23T23:35:24.001Z,16.10
2022-10-23T23:40:25.604Z,16.05
2022-10-23T23:45:26.881Z,15.95
2022-10-23T23:50:28.162Z,15.94
2022-10-23T23:55:29.466Z,15.89
